createdAt,value
2023-04-09T00:00:35.760Z,1028.10
2023-04-09T00:01:35.798Z,1028.13
2023-04-09T00:02:35.787Z,1028.09
2023-04-09T00:03:35.944Z,1028.08
2023-04-09T00:04:35.843Z,1028.05
2023-04-09T00:05:35.766Z,1028.08
2023-04-09T00:06:35.770Z,1028.05
2023-04-09T00:07:35.770Z,1028.09
2023-04-09T00:08:35.776Z,1028.10
2023-04-09T00:09:35.774Z,1028.07
2023-04-09T00:10:35.810Z,1028.10
2023-04-09T00:11:35.780Z,1028.07
2023-04-09T00:12:35.777Z,1028.10
2023-04-09T00:13:39.525Z,1028.08
2023-04-09T00:14:35.788Z,1028.11
2023-04-09T00:15:35.787Z,1028.09
2023-04-09T00:16:35.835Z,1028.07
2023-04-09T00:17:35.797Z,1028.06
2023-04-09T00:18:35.790Z,1028.08
2023-04-09T00:19:35.795Z,1028.05
2023-04-09T00:20:35.796Z,1028.05
2023-04-09T00:21:35.796Z,1028.06
2023-04-09T00:22:35.800Z,1028.05
2023-04-09T00:23:35.810Z,1028.04
2023-04-09T00:24:35.811Z,1028.02
2023-04-09T00:25:35.806Z,1028.02
2023-04-09T00:26:35.844Z,1028.02
2023-04-09T00:27:35.806Z,1028.00
2023-04-09T00:28:35.813Z,1028.04
2023-04-09T00:29:35.816Z,1028.08
2023-04-09T00:30:35.817Z,1028.04
2023-04-09T00:31:35.838Z,1028.07
2023-04-09T00:32:35.843Z,1028.04
2023-04-09T00:33:35.823Z,1028.07
2023-04-09T00:34:35.825Z,1028.05
2023-04-09T00:35:35.852Z,1028.06
2023-04-09T00:36:35.829Z,1028.05
2023-04-09T00:37:35.830Z,1028.01
2023-04-09T00:38:35.836Z,1027.99
2023-04-09T00:39:35.835Z,1028.01
2023-04-09T00:40:35.839Z,1028.01
2023-04-09T00:41:35.838Z,1027.97
2023-04-09T00:42:35.869Z,1027.99
2023-04-09T00:43:35.840Z,1028.00
2023-04-09T00:44:35.877Z,1028.01
2023-04-09T00:45:35.942Z,1028.00
2023-04-09T00:46:35.846Z,1028.00
2023-04-09T00:47:35.941Z,1028.05
2023-04-09T00:48:35.861Z,1027.97
2023-04-09T00:49:35.857Z,1028.02
2023-04-09T00:50:35.861Z,1027.97
2023-04-09T00:51:35.857Z,1028.00
2023-04-09T00:52:35.867Z,1028.00
2023-04-09T00:53:35.866Z,1028.00
2023-04-09T00:54:35.870Z,1028.04
2023-04-09T00:55:35.870Z,1028.01
2023-04-09T00:56:35.877Z,1027.98
2023-04-09T00:57:35.870Z,1028.02
2023-04-09T00:58:35.920Z,1028.01
2023-04-09T00:59:35.871Z,1028.00
2023-04-09T01:00:35.881Z,1028.03
2023-04-09T01:01:36.169Z,1028.03
2023-04-09T01:02:36.058Z,1028.04
2023-04-09T01:03:36.085Z,1028.08
2023-04-09T01:04:35.890Z,1028.08
2023-04-09T01:05:35.887Z,1028.06
2023-04-09T01:06:35.884Z,1028.09
2023-04-09T01:07:35.895Z,1028.09
2023-04-09T01:08:35.893Z,1028.09
2023-04-09T01:09:35.889Z,1028.09
2023-04-09T01:10:35.909Z,1028.10
2023-04-09T01:11:36.004Z,1028.07
2023-04-09T01:12:35.904Z,1028.06
2023-04-09T01:13:35.894Z,1028.10
2023-04-09T01:14:35.927Z,1028.06
2023-04-09T01:15:35.896Z,1028.06
2023-04-09T01:16:35.964Z,1028.12
2023-04-09T01:17:35.945Z,1028.07
2023-04-09T01:18:35.911Z,1028.08
2023-04-09T01:19:35.907Z,1028.13
2023-04-09T01:20:35.913Z,1028.09
2023-04-09T01:21:35.911Z,1028.11
2023-04-09T01:22:35.918Z,1028.09
2023-04-09T01:23:35.916Z,1028.11
2023-04-09T01:24:35.929Z,1028.11
2023-04-09T01:25:35.925Z,1028.08
2023-04-09T01:26:35.925Z,1028.09
2023-04-09T01:27:35.922Z,1028.10
2023-04-09T01:28:35.932Z,1028.14
2023-04-09T01:29:35.933Z,1028.14
2023-04-09T01:30:35.998Z,1028.10
2023-04-09T01:31:35.933Z,1028.12
2023-04-09T01:32:35.960Z,1028.10
2023-04-09T01:33:35.935Z,1028.08
2023-04-09T01:34:35.940Z,1028.13
2023-04-09T01:35:35.961Z,1028.09
2023-04-09T01:36:35.940Z,1028.15
2023-04-09T01:37:35.941Z,1028.13
2023-04-09T01:38:35.945Z,1028.15
2023-04-09T01:39:35.943Z,1028.17
2023-04-09T01:40:35.951Z,1028.17
2023-04-09T01:41:35.951Z,1028.19
2023-04-09T01:42:35.958Z,1028.15
2023-04-09T01:43:35.954Z,1028.11
2023-04-09T01:44:35.961Z,1028.15
2023-04-09T01:45:35.964Z,1028.17
2023-04-09T01:46:36.078Z,1028.13
2023-04-09T01:47:35.972Z,1028.15
2023-04-09T01:48:35.965Z,1028.13
2023-04-09T01:49:35.969Z,1028.15
2023-04-09T01:50:35.975Z,1028.11
2023-04-09T01:51:35.985Z,1028.09
2023-04-09T01:52:35.987Z,1028.10
2023-04-09T01:53:35.974Z,1028.15
2023-04-09T01:54:35.985Z,1028.14
2023-04-09T01:55:35.983Z,1028.17
2023-04-09T01:56:35.983Z,1028.14
2023-04-09T01:57:35.988Z,1028.20
2023-04-09T01:58:35.981Z,1028.16
2023-04-09T01:59:35.990Z,1028.14
2023-04-09T02:00:35.991Z,1028.18
2023-04-09T02:01:36.097Z,1028.20
2023-04-09T02:02:36.113Z,1028.18
2023-04-09T02:03:36.051Z,1028.15
2023-04-09T02:04:35.993Z,1028.13
2023-04-09T02:05:36.001Z,1028.13
2023-04-09T02:06:36.003Z,1028.17
2023-04-09T02:07:36.004Z,1028.14
2023-04-09T02:08:36.009Z,1028.12
2023-04-09T02:09:36.009Z,1028.15
2023-04-09T02:10:36.009Z,1028.18
2023-04-09T02:11:36.007Z,1028.15
2023-04-09T02:12:36.012Z,1028.20
2023-04-09T02:13:36.022Z,1028.14
2023-04-09T02:14:36.017Z,1028.17
2023-04-09T02:15:36.030Z,1028.13
2023-04-09T02:16:36.021Z,1028.18
2023-04-09T02:17:36.048Z,1028.14
2023-04-09T02:18:36.045Z,1028.14
2023-04-09T02:19:36.036Z,1028.12
2023-04-09T02:20:36.024Z,1028.13
2023-04-09T02:21:36.028Z,1028.12
2023-04-09T02:22:36.045Z,1028.14
2023-04-09T02:23:36.031Z,1028.09
2023-04-09T02:24:36.040Z,1028.12
2023-04-09T02:25:36.035Z,1028.10
2023-04-09T02:26:36.045Z,1028.10
2023-04-09T02:27:36.042Z,1028.11
2023-04-09T02:28:36.049Z,1028.06
2023-04-09T02:29:36.050Z,1028.05
2023-04-09T02:30:36.044Z,1028.05
2023-04-09T02:31:36.264Z,1028.04
2023-04-09T02:32:36.068Z,1028.02
2023-04-09T02:33:36.053Z,1028.05
2023-04-09T02:34:36.078Z,1027.99
2023-04-09T02:35:36.414Z,1028.02
2023-04-09T02:36:36.062Z,1027.97
2023-04-09T02:37:36.063Z,1027.99
2023-04-09T02:38:36.063Z,1028.00
2023-04-09T02:39:36.063Z,1027.97
2023-04-09T02:40:36.064Z,1028.02
2023-04-09T02:41:36.070Z,1027.99
2023-04-09T02:42:36.069Z,1027.98
2023-04-09T02:43:36.070Z,1027.98
2023-04-09T02:44:36.074Z,1027.98
2023-04-09T02:45:36.079Z,1028.00
2023-04-09T02:46:36.107Z,1028.04
2023-04-09T02:47:36.097Z,1028.02
2023-04-09T02:48:36.082Z,1028.02
2023-04-09T02:49:36.087Z,1028.04
2023-04-09T02:50:36.110Z,1028.03
2023-04-09T02:51:36.108Z,1028.05
2023-04-09T02:52:36.089Z,1028.06
2023-04-09T02:53:36.094Z,1028.05
2023-04-09T02:54:36.093Z,1028.03
2023-04-09T02:55:36.096Z,1028.07
2023-04-09T02:56:36.114Z,1028.09
2023-04-09T02:57:36.106Z,1028.10
2023-04-09T02:58:36.105Z,1028.12
2023-04-09T02:59:36.122Z,1028.09
2023-04-09T03:00:36.110Z,1028.09
2023-04-09T03:01:36.159Z,1028.11
2023-04-09T03:02:36.257Z,1028.07
2023-04-09T03:03:36.225Z,1028.10
2023-04-09T03:04:36.119Z,1028.03
2023-04-09T03:05:36.120Z,1028.07
2023-04-09T03:06:36.147Z,1028.07
2023-04-09T03:07:36.122Z,1028.04
2023-04-09T03:08:36.128Z,1028.03
2023-04-09T03:09:36.125Z,1028.05
2023-04-09T03:10:36.123Z,1028.07
2023-04-09T03:11:36.130Z,1028.07
2023-04-09T03:12:36.136Z,1028.07
2023-04-09T03:13:36.134Z,1028.11
2023-04-09T03:14:36.141Z,1028.11
2023-04-09T03:15:36.163Z,1028.11
2023-04-09T03:16:36.137Z,1028.15
2023-04-09T03:17:36.163Z,1028.11
2023-04-09T03:18:36.144Z,1028.11
2023-04-09T03:19:36.141Z,1028.14
2023-04-09T03:20:36.146Z,1028.11
2023-04-09T03:21:36.144Z,1028.13
2023-04-09T03:22:36.404Z,1028.14
2023-04-09T03:23:36.150Z,1028.11
2023-04-09T03:24:36.153Z,1028.16
2023-04-09T03:25:36.161Z,1028.16
2023-04-09T03:26:36.170Z,1028.19
2023-04-09T03:27:36.158Z,1028.21
2023-04-09T03:28:36.314Z,1028.20
2023-04-09T03:29:36.160Z,1028.19
2023-04-09T03:30:36.168Z,1028.17
2023-04-09T03:31:36.222Z,1028.14
2023-04-09T03:32:36.189Z,1028.18
2023-04-09T03:33:36.498Z,1028.19
2023-04-09T03:34:36.177Z,1028.20
2023-04-09T03:35:36.214Z,1028.23
2023-04-09T03:36:36.173Z,1028.18
2023-04-09T03:37:36.179Z,1028.22
2023-04-09T03:38:36.204Z,1028.18
2023-04-09T03:39:36.184Z,1028.17
2023-04-09T03:40:36.182Z,1028.22
2023-04-09T03:41:36.183Z,1028.15
2023-04-09T03:42:36.190Z,1028.17
2023-04-09T03:43:36.185Z,1028.16
2023-04-09T03:44:36.197Z,1028.16
2023-04-09T03:45:36.191Z,1028.16
2023-04-09T03:46:36.468Z,1028.13
2023-04-09T03:47:36.235Z,1028.14
2023-04-09T03:48:36.194Z,1028.15
2023-04-09T03:49:36.201Z,1028.12
2023-04-09T03:50:36.203Z,1028.17
2023-04-09T03:51:36.254Z,1028.12
2023-04-09T03:52:36.204Z,1028.13
2023-04-09T03:53:36.208Z,1028.13
2023-04-09T03:54:36.238Z,1028.14
2023-04-09T03:55:36.209Z,1028.11
2023-04-09T03:56:36.231Z,1028.15
2023-04-09T03:57:36.217Z,1028.16
2023-04-09T03:58:36.212Z,1028.18
2023-04-09T03:59:36.214Z,1028.19
2023-04-09T04:00:36.218Z,1028.18
2023-04-09T04:01:36.315Z,1028.22
2023-04-09T04:02:36.367Z,1028.21
2023-04-09T04:03:36.379Z,1028.24
2023-04-09T04:04:36.246Z,1028.24
2023-04-09T04:05:36.228Z,1028.26
2023-04-09T04:06:36.225Z,1028.24
2023-04-09T04:07:36.233Z,1028.25
2023-04-09T04:08:36.236Z,1028.31
2023-04-09T04:09:36.244Z,1028.30
2023-04-09T04:10:36.272Z,1028.26
2023-04-09T04:11:36.241Z,1028.30
2023-04-09T04:12:36.236Z,1028.29
2023-04-09T04:13:36.245Z,1028.27
2023-04-09T04:14:36.245Z,1028.33
2023-04-09T04:15:36.242Z,1028.28
2023-04-09T04:16:36.326Z,1028.33
2023-04-09T04:17:36.311Z,1028.32
2023-04-09T04:18:36.251Z,1028.31
2023-04-09T04:19:36.255Z,1028.37
2023-04-09T04:20:36.255Z,1028.38
2023-04-09T04:21:36.253Z,1028.34
2023-04-09T04:22:36.252Z,1028.32
2023-04-09T04:23:36.256Z,1028.32
2023-04-09T04:24:36.257Z,1028.31
2023-04-09T04:25:36.269Z,1028.33
2023-04-09T04:26:36.441Z,1028.32
2023-04-09T04:27:36.283Z,1028.31
2023-04-09T04:28:36.267Z,1028.32
2023-04-09T04:29:36.270Z,1028.32
2023-04-09T04:30:36.270Z,1028.34
2023-04-09T04:31:36.305Z,1028.33
2023-04-09T04:32:36.268Z,1028.36
2023-04-09T04:33:36.277Z,1028.34
2023-04-09T04:34:36.278Z,1028.28
2023-04-09T04:35:36.314Z,1028.30
2023-04-09T04:36:36.280Z,1028.35
2023-04-09T04:37:36.288Z,1028.33
2023-04-09T04:38:36.295Z,1028.35
2023-04-09T04:39:36.298Z,1028.36
2023-04-09T04:40:36.293Z,1028.36
2023-04-09T04:41:36.287Z,1028.38
2023-04-09T04:42:36.315Z,1028.37
2023-04-09T04:43:36.308Z,1028.38
2023-04-09T04:44:36.294Z,1028.37
2023-04-09T04:45:36.317Z,1028.36
2023-04-09T04:46:36.313Z,1028.35
2023-04-09T04:47:36.332Z,1028.35
2023-04-09T04:48:36.304Z,1028.38
2023-04-09T04:49:36.305Z,1028.34
2023-04-09T04:50:36.308Z,1028.38
2023-04-09T04:51:36.308Z,1028.35
2023-04-09T04:52:36.314Z,1028.36
2023-04-09T04:53:36.317Z,1028.37
2023-04-09T04:54:36.313Z,1028.36
2023-04-09T04:55:36.329Z,1028.34
2023-04-09T04:56:36.318Z,1028.36
2023-04-09T04:57:36.322Z,1028.34
2023-04-09T04:58:36.399Z,1028.36
2023-04-09T04:59:36.323Z,1028.38
2023-04-09T05:00:36.331Z,1028.36
2023-04-09T05:01:36.469Z,1028.35
2023-04-09T05:02:36.457Z,1028.37
2023-04-09T05:03:36.436Z,1028.40
2023-04-09T05:04:36.329Z,1028.42
2023-04-09T05:05:36.336Z,1028.39
2023-04-09T05:06:36.352Z,1028.42
2023-04-09T05:07:36.343Z,1028.39
2023-04-09T05:08:36.341Z,1028.44
2023-04-09T05:09:36.345Z,1028.44
2023-04-09T05:10:36.344Z,1028.44
2023-04-09T05:11:36.346Z,1028.46
2023-04-09T05:12:36.353Z,1028.49
2023-04-09T05:13:36.350Z,1028.48
2023-04-09T05:14:36.391Z,1028.46
2023-04-09T05:15:36.358Z,1028.44
2023-04-09T05:16:36.374Z,1028.41
2023-04-09T05:17:36.369Z,1028.46
2023-04-09T05:18:36.355Z,1028.44
2023-04-09T05:19:36.361Z,1028.44
2023-04-09T05:20:36.364Z,1028.45
2023-04-09T05:21:36.369Z,1028.41
2023-04-09T05:22:36.365Z,1028.43
2023-04-09T05:23:36.373Z,1028.46
2023-04-09T05:24:36.374Z,1028.47
2023-04-09T05:25:36.368Z,1028.49
2023-04-09T05:26:36.372Z,1028.46
2023-04-09T05:27:36.377Z,1028.47
2023-04-09T05:28:36.373Z,1028.49
2023-04-09T05:29:36.384Z,1028.52
2023-04-09T05:30:36.436Z,1028.51
2023-04-09T05:31:36.395Z,1028.54
2023-04-09T05:32:36.392Z,1028.51
2023-04-09T05:33:36.388Z,1028.53
2023-04-09T05:34:36.390Z,1028.53
2023-04-09T05:35:36.428Z,1028.53
2023-04-09T05:36:36.390Z,1028.52
2023-04-09T05:37:36.399Z,1028.55
2023-04-09T05:38:36.401Z,1028.52
2023-04-09T05:39:36.402Z,1028.53
2023-04-09T05:40:36.410Z,1028.55
2023-04-09T05:41:36.403Z,1028.55
2023-04-09T05:42:36.413Z,1028.57
2023-04-09T05:43:36.551Z,1028.61
2023-04-09T05:44:36.410Z,1028.58
2023-04-09T05:45:36.410Z,1028.59
2023-04-09T05:46:36.441Z,1028.61
2023-04-09T05:47:36.444Z,1028.63
2023-04-09T05:48:36.567Z,1028.64
2023-04-09T05:49:36.432Z,1028.61
2023-04-09T05:50:47.146Z,1028.60
2023-04-09T05:51:36.421Z,1028.59
2023-04-09T05:52:36.438Z,1028.58
2023-04-09T05:53:36.732Z,1028.63
2023-04-09T05:54:36.433Z,1028.61
2023-04-09T05:55:36.442Z,1028.62
2023-04-09T05:56:36.436Z,1028.62
2023-04-09T05:57:36.441Z,1028.64
2023-04-09T05:58:36.439Z,1028.65
2023-04-09T05:59:36.444Z,1028.60
2023-04-09T06:00:36.442Z,1028.65
2023-04-09T06:01:36.480Z,1028.72
2023-04-09T06:02:36.531Z,1028.66
2023-04-09T06:03:36.584Z,1028.66
2023-04-09T06:04:36.488Z,1028.65
2023-04-09T06:05:36.456Z,1028.67
2023-04-09T06:06:36.458Z,1028.64
2023-04-09T06:07:36.470Z,1028.71
2023-04-09T06:08:36.470Z,1028.70
2023-04-09T06:09:36.467Z,1028.72
2023-04-09T06:10:36.465Z,1028.68
2023-04-09T06:11:36.464Z,1028.71
2023-04-09T06:12:36.467Z,1028.71
2023-04-09T06:13:36.515Z,1028.75
2023-04-09T06:14:36.470Z,1028.72
2023-04-09T06:15:36.589Z,1028.71
2023-04-09T06:16:36.484Z,1028.76
2023-04-09T06:17:36.507Z,1028.82
2023-04-09T06:18:36.503Z,1028.77
2023-04-09T06:19:36.487Z,1028.81
2023-04-09T06:20:36.481Z,1028.81
2023-04-09T06:21:36.489Z,1028.82
2023-04-09T06:22:36.482Z,1028.85
2023-04-09T06:23:36.489Z,1028.80
2023-04-09T06:24:36.485Z,1028.86
2023-04-09T06:25:36.496Z,1028.84
2023-04-09T06:26:36.499Z,1028.86
2023-04-09T06:27:36.495Z,1028.83
2023-04-09T06:28:36.513Z,1028.83
2023-04-09T06:29:36.500Z,1028.84
2023-04-09T06:30:36.498Z,1028.85
2023-04-09T06:31:36.574Z,1028.88
2023-04-09T06:32:46.781Z,1028.86
2023-04-09T06:33:36.505Z,1028.86
2023-04-09T06:34:36.533Z,1028.86
2023-04-09T06:35:36.526Z,1028.87
2023-04-09T06:36:36.511Z,1028.91
2023-04-09T06:37:36.518Z,1028.91
2023-04-09T06:38:36.522Z,1028.91
2023-04-09T06:39:38.594Z,1028.92
2023-04-09T06:40:36.522Z,1028.97
2023-04-09T06:41:36.521Z,1028.97
2023-04-09T06:42:36.534Z,1028.93
2023-04-09T06:43:36.523Z,1028.95
2023-04-09T06:44:36.537Z,1028.98
2023-04-09T06:45:36.534Z,1029.01
2023-04-09T06:46:36.631Z,1029.01
2023-04-09T06:47:36.559Z,1029.01
2023-04-09T06:48:36.588Z,1029.01
2023-04-09T06:49:36.545Z,1028.98
2023-04-09T06:50:36.557Z,1029.03
2023-04-09T06:51:36.545Z,1029.05
2023-04-09T06:52:36.538Z,1029.03
2023-04-09T06:53:36.592Z,1029.01
2023-04-09T06:54:36.541Z,1029.00
2023-04-09T06:55:36.552Z,1029.04
2023-04-09T06:56:36.545Z,1029.00
2023-04-09T06:57:36.550Z,1028.98
2023-04-09T06:58:36.551Z,1028.99
2023-04-09T06:59:36.562Z,1028.96
2023-04-09T07:00:36.563Z,1028.97
2023-04-09T07:01:36.627Z,1028.94
2023-04-09T07:02:36.623Z,1028.94
2023-04-09T07:03:36.873Z,1028.94
2023-04-09T07:04:36.634Z,1028.92
2023-04-09T07:05:36.572Z,1028.93
2023-04-09T07:06:36.601Z,1028.92
2023-04-09T07:07:36.566Z,1028.89
2023-04-09T07:08:36.578Z,1028.91
2023-04-09T07:09:36.576Z,1028.93
2023-04-09T07:10:36.831Z,1028.93
2023-04-09T07:11:36.577Z,1028.95
2023-04-09T07:12:36.585Z,1028.95
2023-04-09T07:13:36.581Z,1028.91
2023-04-09T07:14:36.582Z,1028.93
2023-04-09T07:15:36.591Z,1028.94
2023-04-09T07:16:36.648Z,1028.96
2023-04-09T07:17:36.619Z,1028.92
2023-04-09T07:18:36.589Z,1028.92
2023-04-09T07:19:36.592Z,1028.97
2023-04-09T07:20:36.591Z,1028.95
2023-04-09T07:21:36.601Z,1028.98
2023-04-09T07:22:36.639Z,1028.95
2023-04-09T07:23:36.754Z,1029.01
2023-04-09T07:24:36.599Z,1028.96
2023-04-09T07:25:36.632Z,1028.96
2023-04-09T07:26:36.605Z,1028.95
2023-04-09T07:27:36.614Z,1028.97
2023-04-09T07:28:36.791Z,1029.00
2023-04-09T07:29:36.610Z,1028.96
2023-04-09T07:30:36.610Z,1028.97
2023-04-09T07:31:36.649Z,1028.98
2023-04-09T07:32:36.692Z,1028.97
2023-04-09T07:33:36.631Z,1029.01
2023-04-09T07:34:36.620Z,1028.99
2023-04-09T07:35:36.656Z,1028.99
2023-04-09T07:36:36.627Z,1028.96
2023-04-09T07:37:36.631Z,1029.01
2023-04-09T07:38:36.654Z,1029.00
2023-04-09T07:39:36.637Z,1029.05
2023-04-09T07:40:36.656Z,1029.04
2023-04-09T07:41:36.637Z,1029.00
2023-04-09T07:42:36.887Z,1029.03
2023-04-09T07:43:36.647Z,1029.01
2023-04-09T07:44:36.645Z,1029.01
2023-04-09T07:45:36.647Z,1029.03
2023-04-09T07:46:36.698Z,1029.06
2023-04-09T07:47:36.689Z,1029.05
2023-04-09T07:48:36.661Z,1029.03
2023-04-09T07:49:36.652Z,1029.03
2023-04-09T07:50:36.656Z,1029.04
2023-04-09T07:51:36.658Z,1029.03
2023-04-09T07:52:36.963Z,1029.03
2023-04-09T07:53:36.662Z,1028.99
2023-04-09T07:54:36.696Z,1029.04
2023-04-09T07:55:36.668Z,1029.03
2023-04-09T07:56:36.669Z,1029.05
2023-04-09T07:57:36.674Z,1029.03
2023-04-09T07:58:36.680Z,1029.06
2023-04-09T07:59:36.713Z,1029.01
2023-04-09T08:00:36.687Z,1029.05
2023-04-09T08:01:36.794Z,1029.09
2023-04-09T08:02:36.760Z,1029.04
2023-04-09T08:03:37.136Z,1029.12
2023-04-09T08:04:36.872Z,1029.12
2023-04-09T08:05:36.698Z,1029.09
2023-04-09T08:06:36.698Z,1029.11
2023-04-09T08:07:36.695Z,1029.11
2023-04-09T08:08:36.699Z,1029.12
2023-04-09T08:09:36.707Z,1029.11
2023-04-09T08:10:36.733Z,1029.11
2023-04-09T08:11:36.703Z,1029.16
2023-04-09T08:12:36.707Z,1029.13
2023-04-09T08:13:36.709Z,1029.12
2023-04-09T08:14:36.723Z,1029.12
2023-04-09T08:15:36.710Z,1029.08
2023-04-09T08:16:36.729Z,1029.11
2023-04-09T08:17:36.745Z,1029.11
2023-04-09T08:18:36.721Z,1029.13
2023-04-09T08:19:36.736Z,1029.10
2023-04-09T08:20:36.734Z,1029.10
2023-04-09T08:21:36.725Z,1029.11
2023-04-09T08:22:36.736Z,1029.10
2023-04-09T08:23:36.735Z,1029.10
2023-04-09T08:24:36.731Z,1029.09
2023-04-09T08:25:36.744Z,1029.08
2023-04-09T08:26:36.751Z,1029.08
2023-04-09T08:27:36.736Z,1029.08
2023-04-09T08:28:36.745Z,1029.08
2023-04-09T08:29:36.754Z,1029.09
2023-04-09T08:30:36.751Z,1029.09
2023-04-09T08:31:36.773Z,1029.11
2023-04-09T08:32:36.795Z,1029.14
2023-04-09T08:33:36.765Z,1029.12
2023-04-09T08:34:36.750Z,1029.15
2023-04-09T08:35:36.759Z,1029.09
2023-04-09T08:36:36.843Z,1029.10
2023-04-09T08:37:36.761Z,1029.10
2023-04-09T08:38:36.765Z,1029.11
2023-04-09T08:39:36.789Z,1029.05
2023-04-09T08:40:36.766Z,1029.05
2023-04-09T08:41:36.769Z,1029.07
2023-04-09T08:42:36.806Z,1029.08
2023-04-09T08:43:56.114Z,1029.13
2023-04-09T08:44:36.774Z,1029.14
2023-04-09T08:45:36.839Z,1029.17
2023-04-09T08:46:36.785Z,1029.12
2023-04-09T08:47:36.922Z,1029.11
2023-04-09T08:48:36.885Z,1029.17
2023-04-09T08:49:36.826Z,1029.12
2023-04-09T08:50:36.800Z,1029.14
2023-04-09T08:51:36.794Z,1029.16
2023-04-09T08:52:36.800Z,1029.10
2023-04-09T08:53:36.801Z,1029.09
2023-04-09T08:54:36.841Z,1029.13
2023-04-09T08:55:36.804Z,1029.10
2023-04-09T08:56:36.804Z,1029.11
2023-04-09T08:57:36.834Z,1029.06
2023-04-09T08:58:36.845Z,1029.05
2023-04-09T08:59:36.843Z,1029.04
2023-04-09T09:00:36.822Z,1029.04
2023-04-09T09:01:36.854Z,1029.10
2023-04-09T09:02:36.910Z,1029.09
2023-04-09T09:03:36.912Z,1029.07
2023-04-09T09:04:36.835Z,1029.06
2023-04-09T09:05:36.830Z,1029.08
2023-04-09T09:06:36.882Z,1029.08
2023-04-09T09:07:36.888Z,1029.10
2023-04-09T09:08:36.833Z,1029.10
2023-04-09T09:09:36.838Z,1029.13
2023-04-09T09:10:36.842Z,1029.15
2023-04-09T09:11:36.862Z,1029.12
2023-04-09T09:12:36.869Z,1029.07
2023-04-09T09:13:36.848Z,1029.12
2023-04-09T09:14:36.879Z,1029.09
2023-04-09T09:34:36.970Z,1029.16
2023-04-09T09:35:36.999Z,1029.17
2023-04-09T09:36:36.951Z,1029.15
2023-04-09T09:37:36.970Z,1029.21
2023-04-09T09:38:36.968Z,1029.18
2023-04-09T09:39:36.966Z,1029.18
2023-04-09T09:40:36.974Z,1029.23
2023-04-09T09:41:37.081Z,1029.20
2023-04-09T09:42:36.982Z,1029.17
2023-04-09T09:43:36.985Z,1029.16
2023-04-09T09:44:36.991Z,1029.15
2023-04-09T09:45:36.986Z,1029.16
2023-04-09T09:46:37.101Z,1029.11
2023-04-09T09:47:37.045Z,1029.16
2023-04-09T09:48:37.004Z,1029.16
2023-04-09T09:49:37.165Z,1029.14
2023-04-09T09:50:37.046Z,1029.13
2023-04-09T09:51:37.109Z,1029.13
2023-04-09T09:52:37.030Z,1029.14
2023-04-09T09:53:37.021Z,1029.11
2023-04-09T09:54:37.026Z,1029.15
2023-04-09T09:55:37.041Z,1029.14
2023-04-09T09:56:37.035Z,1029.15
2023-04-09T09:57:37.038Z,1029.10
2023-04-09T09:58:37.035Z,1029.18
2023-04-09T09:59:37.035Z,1029.16
2023-04-09T10:00:37.052Z,1029.14
2023-04-09T10:01:37.258Z,1029.13
2023-04-09T10:02:37.185Z,1029.12
2023-04-09T10:03:37.052Z,1029.15
2023-04-09T10:04:37.080Z,1029.15
2023-04-09T10:05:37.060Z,1029.15
2023-04-09T10:06:37.138Z,1029.19
2023-04-09T10:07:37.072Z,1029.16
2023-04-09T10:08:37.139Z,1029.18
2023-04-09T10:09:37.126Z,1029.18
2023-04-09T10:10:37.083Z,1029.16
2023-04-09T10:11:37.093Z,1029.15
2023-04-09T10:12:37.083Z,1029.19
2023-04-09T10:13:37.100Z,1029.21
2023-04-09T10:14:37.100Z,1029.17
2023-04-09T10:15:37.144Z,1029.19
2023-04-09T10:16:37.108Z,1029.19
2023-04-09T10:17:37.131Z,1029.15
2023-04-09T10:18:37.106Z,1029.21
2023-04-09T10:19:37.302Z,1029.22
2023-04-09T10:20:37.132Z,1029.16
2023-04-09T10:21:37.126Z,1029.18
2023-04-09T10:22:37.150Z,1029.19
2023-04-09T10:23:37.167Z,1029.14
2023-04-09T10:24:37.145Z,1029.18
2023-04-09T10:25:37.144Z,1029.18
2023-04-09T10:26:37.144Z,1029.12
2023-04-09T10:27:37.151Z,1029.16
2023-04-09T10:28:37.157Z,1029.16
2023-04-09T10:29:37.154Z,1029.14
2023-04-09T10:30:37.163Z,1029.16
2023-04-09T10:31:37.213Z,1029.20
2023-04-09T10:32:37.236Z,1029.20
2023-04-09T10:33:37.175Z,1029.22
2023-04-09T10:34:37.173Z,1029.25
2023-04-09T10:35:37.178Z,1029.17
2023-04-09T10:36:37.186Z,1029.20
2023-04-09T10:37:37.219Z,1029.23
2023-04-09T10:38:37.212Z,1029.20
2023-04-09T10:39:37.208Z,1029.19
2023-04-09T10:40:37.194Z,1029.21
2023-04-09T10:41:37.203Z,1029.22
2023-04-09T10:42:37.213Z,1029.26
2023-04-09T10:43:37.210Z,1029.21
2023-04-09T10:44:37.209Z,1029.22
2023-04-09T10:45:37.213Z,1029.23
2023-04-09T10:46:37.333Z,1029.21
2023-04-09T10:47:37.294Z,1029.23
2023-04-09T10:48:37.219Z,1029.26
2023-04-09T10:49:37.233Z,1029.24
2023-04-09T10:50:37.231Z,1029.23
2023-04-09T10:51:37.235Z,1029.23
2023-04-09T10:52:37.231Z,1029.24
2023-04-09T10:53:37.282Z,1029.19
2023-04-09T10:54:37.308Z,1029.18
2023-04-09T10:55:37.354Z,1029.19
2023-04-09T10:56:37.261Z,1029.16
2023-04-09T10:57:37.262Z,1029.20
2023-04-09T10:58:37.246Z,1029.20
2023-04-09T10:59:37.265Z,1029.21
2023-04-09T11:00:37.260Z,1029.17
2023-04-09T11:01:37.324Z,1029.20
2023-04-09T11:02:37.551Z,1029.20
2023-04-09T11:03:37.390Z,1029.21
2023-04-09T11:04:37.297Z,1029.21
2023-04-09T11:05:37.273Z,1029.23
2023-04-09T11:06:37.280Z,1029.21
2023-04-09T11:07:37.285Z,1029.22
2023-04-09T11:08:37.284Z,1029.24
2023-04-09T11:09:37.280Z,1029.21
2023-04-09T11:10:37.309Z,1029.21
2023-04-09T11:11:37.297Z,1029.24
2023-04-09T11:12:37.303Z,1029.19
2023-04-09T11:13:37.316Z,1029.16
2023-04-09T11:14:37.292Z,1029.18
2023-04-09T11:15:37.300Z,1029.21
2023-04-09T11:16:37.306Z,1029.13
2023-04-09T11:17:37.382Z,1029.17
2023-04-09T11:18:37.535Z,1029.15
2023-04-09T11:19:37.302Z,1029.19
2023-04-09T11:20:37.296Z,1029.17
2023-04-09T11:21:37.304Z,1029.16
2023-04-09T11:22:37.299Z,1029.17
2023-04-09T11:23:37.313Z,1029.20
2023-04-09T11:24:37.304Z,1029.20
2023-04-09T11:25:37.456Z,1029.16
2023-04-09T11:26:37.338Z,1029.15
2023-04-09T11:27:37.311Z,1029.14
2023-04-09T11:28:37.311Z,1029.16
2023-04-09T11:29:37.301Z,1029.17
2023-04-09T11:30:37.303Z,1029.18
2023-04-09T11:31:37.342Z,1029.20
2023-04-09T11:32:37.329Z,1029.19
2023-04-09T11:33:37.329Z,1029.17
2023-04-09T11:34:37.313Z,1029.18
2023-04-09T11:35:37.481Z,1029.23
2023-04-09T11:36:37.318Z,1029.22
2023-04-09T11:37:37.323Z,1029.20
2023-04-09T11:38:37.320Z,1029.16
2023-04-09T11:39:37.313Z,1029.17
2023-04-09T11:40:37.333Z,1029.15
2023-04-09T11:41:37.331Z,1029.15
2023-04-09T11:42:37.338Z,1029.15
2023-04-09T11:43:37.320Z,1029.13
2023-04-09T11:44:37.316Z,1029.13
2023-04-09T11:45:37.316Z,1029.14
2023-04-09T11:46:37.367Z,1029.13
2023-04-09T11:47:37.392Z,1029.14
2023-04-09T11:48:37.342Z,1029.15
2023-04-09T11:49:37.324Z,1029.18
2023-04-09T11:50:37.374Z,1029.16
2023-04-09T11:51:37.325Z,1029.14
2023-04-09T11:52:37.324Z,1029.19
2023-04-09T11:53:37.329Z,1029.20
2023-04-09T11:54:37.329Z,1029.17
2023-04-09T11:55:37.480Z,1029.20
2023-04-09T11:56:37.324Z,1029.19
2023-04-09T11:57:37.329Z,1029.18
2023-04-09T11:58:37.383Z,1029.19
2023-04-09T11:59:37.330Z,1029.20
2023-04-09T12:00:37.324Z,1029.19
2023-04-09T12:01:37.390Z,1029.21
2023-04-09T12:02:37.528Z,1029.19
2023-04-09T12:03:37.620Z,1029.20
2023-04-09T12:04:37.474Z,1029.22
2023-04-09T12:05:39.183Z,1029.19
2023-04-09T12:06:37.324Z,1029.19
2023-04-09T12:07:37.335Z,1029.21
2023-04-09T12:08:37.361Z,1029.20
2023-04-09T12:09:37.327Z,1029.21
2023-04-09T12:10:37.333Z,1029.19
2023-04-09T12:11:37.333Z,1029.20
2023-04-09T12:12:37.343Z,1029.21
2023-04-09T12:13:37.342Z,1029.18
2023-04-09T12:14:37.358Z,1029.16
2023-04-09T12:15:37.357Z,1029.11
2023-04-09T12:16:37.387Z,1029.16
2023-04-09T12:17:37.369Z,1029.19
2023-04-09T12:18:37.330Z,1029.17
2023-04-09T12:19:37.331Z,1029.16
2023-04-09T12:20:37.386Z,1029.15
2023-04-09T12:21:37.333Z,1029.18
2023-04-09T12:22:37.322Z,1029.14
2023-04-09T12:23:37.332Z,1029.16
2023-04-09T12:24:37.329Z,1029.17